Time;durP1;ratioP1;P1;durP2;ratioP2;P2;SDS_P1;SDS_P2;PMS_P1;PMS_P2;Temp;Humidity;BMP_temperature;BMP_pressure;BME280_temperature;BME280_humidity;BME280_pressure;Samples;Min_cycle;Max_cycle;Signal;HPM_P1;HPM_P2
2022/10/19 00:00:27;;;;;;;16.40;8.23;;;13.00;99.90;;;12.69;100.00;98210.47;4992288;28;20424;-42
2022/10/19 00:02:53;;;;;;;11.90;7.57;;;13.00;99.90;;;12.72;100.00;98208.56;4986425;28;20371;-42
2022/10/19 00:05:18;;;;;;;11.98;8.48;;;13.00;99.90;;;12.73;100.00;98202.34;4986878;28;20042;-42
2022/10/19 00:07:44;;;;;;;12.45;8.10;;;13.00;99.90;;;12.68;100.00;98196.34;4992123;28;20068;-45
2022/10/19 00:10:10;;;;;;;11.30;7.90;;;13.00;99.90;;;12.64;100.00;98194.72;4987422;28;20505;-42
2022/10/19 00:12:36;;;;;;;12.48;8.13;;;13.00;99.90;;;12.63;100.00;98197.41;4980785;28;20041;-44
2022/10/19 00:15:03;;;;;;;13.95;9.13;;;13.00;99.90;;;12.62;100.00;98204.50;4981854;28;20034;-52
2022/10/19 00:17:29;;;;;;;13.07;9.13;;;13.00;99.90;;;12.56;100.00;98191.44;4986857;28;20161;-43
2022/10/19 00:19:55;;;;;;;13.55;9.07;;;12.90;99.90;;;12.58;100.00;98195.78;4985562;28;20042;-45
2022/10/19 00:22:20;;;;;;;13.18;8.63;;;12.90;99.90;;;12.56;100.00;98194.97;4990489;28;20037;-43
2022/10/19 00:24:46;;;;;;;15.40;8.80;;;12.90;99.90;;;12.60;100.00;98187.81;4987453;28;20041;-42
2022/10/19 00:27:12;;;;;;;13.15;8.32;;;12.90;99.90;;;12.59;100.00;98186.06;4985208;28;20729;-43
2022/10/19 00:29:38;;;;;;;14.13;8.30;;;12.90;99.90;;;12.59;100.00;98197.50;4980954;28;20053;-46
2022/10/19 00:32:04;;;;;;;13.88;8.43;;;12.90;99.90;;;12.55;100.00;98198.53;4983654;28;20144;-42
2022/10/19 00:34:29;;;;;;;13.25;8.05;;;12.90;99.90;;;12.52;100.00;98200.41;4984490;28;20210;-42
2022/10/19 00:36:55;;;;;;;11.82;7.63;;;12.90;99.90;;;12.49;100.00;98201.38;4978421;28;20053;-42
2022/10/19 00:39:21;;;;;;;13.48;7.75;;;12.90;99.90;;;12.49;100.00;98197.84;4991124;28;20029;-43
2022/10/19 00:41:47;;;;;;;12.43;7.18;;;12.90;99.90;;;12.46;100.00;98200.63;4985562;28;20061;-42
2022/10/19 00:44:14;;;;;;;14.00;8.23;;;12.80;99.90;;;12.38;100.00;98204.38;4987545;28;20088;-42
2022/10/19 00:46:43;;;;;;;10.60;6.78;;;12.80;99.90;;;12.36;100.00;98203.56;4992561;28;20024;-42
2022/10/19 00:49:39;;;;;;;10.73;6.97;;;12.70;99.90;;;12.29;100.00;98204.66;4990079;28;20030;-43
2022/10/19 00:52:09;;;;;;;12.43;6.65;;;12.70;99.90;;;12.26;100.00;98203.84;4987005;28;20522;-43
2022/10/19 00:54:38;;;;;;;10.65;7.03;;;12.60;99.90;;;12.23;100.00;98204.81;4991100;28;20050;-43
2022/10/19 00:57:05;;;;;;;11.82;7.20;;;12.60;99.90;;;12.18;100.00;98201.44;4986385;28;20112;-44
2022/10/19 00:59:31;;;;;;;10.40;7.10;;;12.50;99.90;;;12.11;100.00;98206.06;4991076;28;20077;-43
2022/10/19 01:01:58;;;;;;;12.88;8.13;;;12.50;99.90;;;12.09;100.00;98204.38;5000513;28;20038;-44
2022/10/19 01:04:25;;;;;;;15.70;8.77;;;12.40;99.90;;;12.15;100.00;98214.75;4979525;28;20060;-44
2022/10/19 01:06:53;;;;;;;12.00;7.97;;;12.50;99.90;;;12.28;100.00;98210.84;4980867;28;20034;-42
2022/10/19 01:09:19;;;;;;;12.32;7.22;;;12.60;99.90;;;12.39;100.00;98210.50;4986192;28;20037;-43
2022/10/19 01:12:14;;;;;;;8.60;6.28;;;12.70;99.90;;;12.45;100.00;98199.72;4981535;28;20386;-42
2022/10/19 01:15:21;;;;;;;11.00;7.55;;;12.80;99.90;;;12.54;100.00;98207.41;4976752;28;20030;-43
2022/10/19 01:17:46;;;;;;;12.55;8.63;;;12.90;99.90;;;12.65;100.00;98204.41;4988332;28;20038;-43
2022/10/19 01:20:55;;;;;;;12.45;7.70;;;13.00;99.90;;;12.74;100.00;98204.09;4986951;28;20808;-42
2022/10/19 01:23:47;;;;;;;12.88;7.65;;;13.10;99.90;;;12.83;100.00;98205.56;4993134;28;20488;-43
2022/10/19 01:26:32;;;;;;;;;;;13.20;99.90;;;12.91;100.00;98192.06;4983145;28;20409;-43
2022/10/19 01:29:23;;;;;;;10.13;7.35;;;13.20;99.90;;;12.97;100.00;98192.75;4986243;28;20265;-43
2022/10/19 01:32:15;;;;;;;14.07;8.52;;;13.30;99.90;;;13.04;100.00;98193.38;4982766;28;20091;-43
2022/10/19 01:34:57;;;;;;;12.68;8.15;;;13.40;99.90;;;13.09;100.00;98185.28;4988908;28;20487;-43
2022/10/19 01:37:46;;;;;;;12.57;7.75;;;13.40;99.90;;;13.14;100.00;98186.84;4983356;28;20052;-43
2022/10/19 01:40:34;;;;;;;10.05;6.00;;;13.50;99.90;;;13.11;100.00;98184.31;4955454;28;20026;-44
2022/10/19 01:43:20;;;;;;;12.68;5.10;;;13.50;99.90;;;13.12;100.00;98179.91;4990346;28;20468;-42
2022/10/19 01:45:51;;;;;;;7.82;5.15;;;13.40;99.90;;;13.13;100.00;98181.59;4986248;28;20087;-42
2022/10/19 01:48:23;;;;;;;7.97;5.07;;;13.50;99.90;;;13.15;100.00;98171.81;4992390;28;20510;-42
2022/10/19 01:50:54;;;;;;;;;;;13.50;99.90;;;13.14;100.00;98173.59;4983334;28;20037;-43
2022/10/19 01:53:21;;;;;;;9.52;5.90;;;13.50;99.90;;;13.01;100.00;98152.91;4992990;28;19921;-43
2022/10/19 01:55:51;;;;;;;9.63;5.70;;;13.50;99.90;;;13.15;100.00;98175.34;4994847;28;20034;-42
2022/10/19 01:58:24;;;;;;;9.05;5.68;;;13.50;99.90;;;13.17;100.00;98173.50;5007339;28;20553;-43
2022/10/19 02:00:52;;;;;;;15.68;7.95;;;13.50;99.90;;;13.20;100.00;98172.53;4989677;28;20468;-43
2022/10/19 02:03:18;;;;;;;9.95;6.25;;;13.50;99.90;;;13.22;100.00;98167.19;4995638;28;20200;-43
2022/10/19 02:05:46;;;;;;;7.00;4.90;;;13.50;99.90;;;13.24;100.00;98167.97;4992088;28;20022;-43
2022/10/19 02:08:19;;;;;;;11.38;6.38;;;13.50;99.90;;;13.21;100.00;98162.78;4992958;28;20563;-45
2022/10/19 02:10:46;;;;;;;12.88;6.55;;;13.60;99.90;;;13.25;100.00;98167.94;4991015;28;20120;-43
2022/10/19 02:13:14;;;;;;;15.90;8.68;;;13.60;99.90;;;13.27;100.00;98157.28;4988835;28;20033;-43
2022/10/19 02:15:44;;;;;;;16.90;9.10;;;13.60;99.90;;;13.31;100.00;98167.72;4986679;28;20074;-44
2022/10/19 02:18:16;;;;;;;24.63;10.60;;;13.60;99.90;;;13.36;100.00;98164.94;4993267;28;20041;-43
2022/10/19 02:20:42;;;;;;;18.13;10.10;;;13.70;99.90;;;13.24;100.00;98141.50;4983643;28;20035;-44
2022/10/19 02:23:08;;;;;;;20.42;10.68;;;13.70;99.90;;;13.44;100.00;98162.00;4986629;28;20376;-42
2022/10/19 02:25:34;;;;;;;24.85;11.48;;;13.70;99.90;;;13.45;100.00;98151.34;4984950;28;20061;-43
2022/10/19 02:28:01;;;;;;;25.85;12.05;;;13.80;99.90;;;13.47;100.00;98146.84;4994535;28;20392;-44
2022/10/19 02:30:27;;;;;;;19.98;10.85;;;13.80;99.90;;;13.49;100.00;98146.81;5004698;28;20030;-43
2022/10/19 02:32:53;;;;;;;18.25;9.93;;;13.80;99.90;;;13.53;100.00;98151.06;4993540;28;20037;-45
2022/10/19 02:35:19;;;;;;;23.20;12.05;;;13.80;99.90;;;13.56;100.00;98145.66;4990751;28;20068;-42
2022/10/19 02:37:45;;;;;;;23.17;11.52;;;13.90;99.90;;;13.58;100.00;98137.66;4990115;28;20032;-44
2022/10/19 02:40:11;;;;;;;23.92;11.73;;;13.90;99.90;;;13.59;100.00;98140.25;4990665;28;20057;-44
2022/10/19 02:43:02;;;;;;;21.70;12.30;;;13.90;99.90;;;13.62;100.00;98136.59;4991398;28;20040;-42
2022/10/19 02:45:32;;;;;;;21.98;11.23;;;13.90;99.90;;;13.63;100.00;98139.19;4993085;28;20026;-43
2022/10/19 02:48:06;;;;;;;24.10;12.60;;;13.90;99.90;;;13.62;100.00;98133.97;4985054;28;20574;-43
2022/10/19 02:50:32;;;;;;;26.48;12.65;;;14.00;99.90;;;13.65;100.00;98131.19;5002625;28;20034;-44
2022/10/19 02:52:58;;;;;;;21.52;11.55;;;14.00;99.90;;;13.67;100.00;98129.34;4989671;28;20034;-43
2022/10/19 02:55:25;;;;;;;26.98;12.95;;;14.00;99.90;;;13.70;100.00;98127.44;4985406;28;20025;-43
2022/10/19 02:57:50;;;;;;;22.85;11.80;;;14.00;99.90;;;13.69;100.00;98123.09;5005099;28;20036;-42
2022/10/19 03:00:16;;;;;;;27.65;12.65;;;14.00;99.90;;;13.71;100.00;98129.19;4985608;28;20052;-43
2022/10/19 03:02:43;;;;;;;23.50;12.48;;;14.00;99.90;;;13.73;100.00;98129.13;4983128;28;20063;-43
2022/10/19 03:05:09;;;;;;;25.20;12.38;;;14.00;99.90;;;13.74;100.00;98131.69;4986560;28;20672;-43
2022/10/19 03:07:34;;;;;;;23.13;11.63;;;14.10;99.90;;;13.74;100.00;98126.41;4987342;28;20355;-42
2022/10/19 03:10:00;;;;;;;32.83;13.90;;;14.10;99.90;;;13.71;100.00;98123.88;4990819;28;20033;-42
2022/10/19 03:12:26;;;;;;;26.52;12.77;;;14.00;99.90;;;13.78;100.00;98124.50;4989346;28;20029;-42
2022/10/19 03:14:51;;;;;;;25.58;12.77;;;14.10;99.90;;;13.77;100.00;98122.78;4986054;28;20779;-43
2022/10/19 03:17:17;;;;;;;30.20;13.50;;;14.10;99.90;;;13.75;100.00;98121.97;4993944;28;20081;-42
2022/10/19 03:19:43;;;;;;;26.20;12.48;;;14.10;99.90;;;13.80;100.00;98120.03;4993509;28;20030;-42
2022/10/19 03:22:09;;;;;;;27.40;13.45;;;14.10;99.90;;;13.81;100.00;98113.78;4989667;28;20030;-42
2022/10/19 03:24:34;;;;;;;22.65;12.55;;;14.10;99.90;;;13.81;100.00;98111.13;4989643;28;20040;-43
2022/10/19 03:27:00;;;;;;;27.67;12.60;;;14.10;99.90;;;13.82;100.00;98109.34;4988303;28;20045;-42
2022/10/19 03:29:26;;;;;;;31.00;13.98;;;14.10;99.90;;;13.78;100.00;98103.28;4986447;28;21003;-43
2022/10/19 03:31:52;;;;;;;30.95;13.48;;;14.10;99.90;;;13.78;100.00;98102.44;4988661;28;20052;-42
2022/10/19 03:34:17;;;;;;;29.25;13.73;;;14.10;99.90;;;13.78;100.00;98111.25;4992290;28;20092;-42
2022/10/19 03:36:44;;;;;;;30.70;14.30;;;14.10;99.90;;;13.80;100.00;98106.78;4988548;28;20022;-42
2022/10/19 03:39:13;;;;;;;30.95;14.30;;;14.10;99.90;;;13.81;100.00;98110.28;4989815;28;20044;-44
2022/10/19 03:41:39;;;;;;;29.30;13.15;;;14.10;99.90;;;13.81;100.00;98105.81;5014722;23;20739;-55
2022/10/19 03:44:06;;;;;;;31.35;13.75;;;14.10;99.90;;;13.82;100.00;98107.56;5009881;28;20028;-57
2022/10/19 03:46:32;;;;;;;34.35;15.05;;;14.10;99.90;;;13.84;100.00;98110.16;5011004;28;20035;-57
2022/10/19 03:48:58;;;;;;;31.70;13.60;;;14.20;99.90;;;13.83;100.00;98106.63;5013617;28;20049;-56
2022/10/19 03:51:26;;;;;;;32.70;14.35;;;14.10;99.90;;;13.84;100.00;98105.72;5008931;28;20502;-56
2022/10/19 03:53:59;;;;;;;31.02;14.18;;;14.20;99.90;;;13.86;100.00;98101.22;5003766;28;20042;-56
2022/10/19 03:56:27;;;;;;;37.83;15.98;;;14.10;99.90;;;13.86;100.00;98097.72;4993621;28;20071;-56
2022/10/19 03:58:57;;;;;;;36.15;15.25;;;14.20;99.90;;;13.84;100.00;98097.75;5006981;28;20087;-56
2022/10/19 04:01:36;;;;;;;34.20;14.20;;;14.10;99.90;;;13.83;100.00;98098.66;5012779;28;20112;-56
2022/10/19 04:04:06;;;;;;;32.50;15.45;;;14.20;99.90;;;13.83;100.00;98101.31;5014373;28;20434;-56
2022/10/19 04:06:36;;;;;;;31.38;15.10;;;14.10;99.90;;;13.69;100.00;98090.38;5005714;28;20341;-57
2022/10/19 04:09:04;;;;;;;38.00;15.85;;;14.10;99.90;;;13.80;100.00;98104.13;5007283;28;20037;-57
2022/10/19 04:11:31;;;;;;;30.20;13.70;;;14.10;99.90;;;13.83;100.00;98108.41;5002108;28;20045;-56
2022/10/19 04:13:58;;;;;;;36.05;14.98;;;14.10;99.90;;;13.83;100.00;98103.97;4987770;28;20025;-56
2022/10/19 04:16:26;;;;;;;31.25;15.57;;;14.20;99.90;;;13.84;100.00;98104.88;5000788;28;20042;-57
2022/10/19 04:18:52;;;;;;;28.98;13.27;;;14.20;99.90;;;13.85;100.00;98107.44;5008915;28;20132;-56
2022/10/19 04:21:28;;;;;;;33.92;14.82;;;14.10;99.90;;;13.85;100.00;98099.47;4992173;28;20026;-56
2022/10/19 04:24:19;;;;;;;29.45;14.55;;;14.10;99.90;;;13.86;100.00;98100.34;5008042;28;20028;-56
2022/10/19 04:26:49;;;;;;;30.25;15.00;;;14.20;99.90;;;13.87;100.00;98102.97;5004957;28;20075;-57
2022/10/19 04:29:17;;;;;;;30.50;14.60;;;14.20;99.90;;;13.87;100.00;98102.97;5011086;28;20025;-57
2022/10/19 04:31:44;;;;;;;29.65;14.32;;;14.20;99.90;;;13.87;100.00;98102.97;4997485;28;21597;-57
2022/10/19 04:34:10;;;;;;;27.45;14.13;;;14.20;99.90;;;13.83;100.00;98095.16;5002833;28;20033;-56
2022/10/19 04:36:36;;;;;;;31.45;14.50;;;14.10;99.90;;;13.81;100.00;98103.19;4976348;28;20120;-56
2022/10/19 04:39:03;;;;;;;26.98;14.30;;;14.10;99.90;;;13.78;100.00;98103.28;5008148;28;20040;-57
2022/10/19 04:41:29;;;;;;;30.10;14.18;;;14.10;99.90;;;13.74;100.00;98105.19;4997008;28;20037;-56
2022/10/19 04:44:01;;;;;;;29.23;14.60;;;14.10;99.90;;;13.72;100.00;98108.84;4993792;28;20079;-56
2022/10/19 04:46:29;;;;;;;28.15;14.35;;;14.00;99.90;;;13.72;100.00;98108.84;5008130;28;20060;-57
2022/10/19 04:48:56;;;;;;;25.05;13.63;;;14.00;99.90;;;13.72;100.00;98111.50;5011317;28;20655;-56
2022/10/19 04:51:23;;;;;;;29.23;14.32;;;14.00;99.90;;;13.73;100.00;98097.31;5011726;28;20441;-56
2022/10/19 04:53:49;;;;;;;26.30;14.05;;;14.00;99.90;;;13.70;100.00;98098.28;4994363;28;20506;-57
2022/10/19 04:56:19;;;;;;;28.95;14.50;;;14.00;99.90;;;13.70;100.00;98097.44;5013309;28;20107;-56
2022/10/19 04:58:46;;;;;;;27.00;13.70;;;14.00;99.90;;;13.67;100.00;98103.69;5012116;28;20550;-57
2022/10/19 05:01:19;;;;;;;26.45;13.63;;;14.00;99.90;;;13.64;100.00;98101.19;5011838;28;20382;-56
2022/10/19 05:03:46;;;;;;;27.17;13.27;;;13.90;99.90;;;13.64;100.00;98101.19;5005704;28;20041;-56
2022/10/19 05:06:13;;;;;;;28.63;14.60;;;14.00;99.90;;;13.64;100.00;98101.19;5011586;28;20021;-56
2022/10/19 05:08:39;;;;;;;32.22;13.80;;;14.00;99.90;;;13.63;100.00;98106.53;5001057;28;20139;-57
2022/10/19 05:11:13;;;;;;;27.05;12.75;;;13.90;99.90;;;13.63;100.00;98106.53;5011890;28;20037;-56
2022/10/19 05:13:39;;;;;;;27.92;12.80;;;13.90;99.90;;;13.65;100.00;98102.03;5008407;28;20030;-56
2022/10/19 05:16:09;;;;;;;29.25;13.60;;;14.00;99.90;;;13.65;100.00;98102.91;5009148;28;20112;-56
2022/10/19 05:18:35;;;;;;;30.05;13.68;;;14.00;99.90;;;13.67;100.00;98108.16;4998668;28;20053;-56
2022/10/19 05:21:12;;;;;;;37.65;18.90;;;14.00;99.90;;;13.58;100.00;98101.41;5012469;28;20041;-56
2022/10/19 05:23:40;;;;;;;27.58;16.88;;;14.00;99.90;;;13.59;100.00;98099.63;5001153;28;20115;-57
2022/10/19 05:26:13;;;;;;;25.67;15.15;;;13.90;99.90;;;13.58;100.00;98101.41;5012593;28;20030;-56
2022/10/19 05:28:39;;;;;;;25.55;14.25;;;13.90;99.90;;;13.56;100.00;98098.81;5005905;28;20057;-57
2022/10/19 05:31:19;;;;;;;25.25;14.38;;;13.90;99.90;;;13.58;100.00;98101.41;5011887;28;20032;-56
2022/10/19 05:33:46;;;;;;;23.67;14.88;;;13.90;99.90;;;13.58;100.00;98097.91;5006596;28;20171;-56
2022/10/19 05:36:28;;;;;;;23.50;14.50;;;13.90;99.90;;;13.53;100.00;98090.09;5010594;28;20034;-56
2022/10/19 05:38:56;;;;;;;21.60;14.73;;;13.90;99.90;;;13.59;100.00;98103.16;5003145;28;20064;-56
2022/10/19 05:41:23;;;;;;;25.50;15.30;;;13.90;99.90;;;13.58;100.00;98106.69;5008816;28;20037;-57
2022/10/19 05:43:55;;;;;;;22.20;13.98;;;13.90;99.90;;;13.59;100.00;98105.78;5010212;28;20388;-56
2022/10/19 05:46:22;;;;;;;23.65;13.60;;;13.90;99.90;;;13.54;100.00;98091.84;5000655;28;20026;-57
2022/10/19 05:48:48;;;;;;;30.88;17.33;;;13.90;99.90;;;13.53;100.00;98085.69;4988652;28;20036;-57
2022/10/19 05:51:18;;;;;;;26.05;17.70;;;13.90;99.90;;;13.56;100.00;98097.94;5004119;28;20117;-57
2022/10/19 05:53:44;;;;;;;20.67;14.80;;;13.90;99.90;;;13.56;100.00;98103.25;5010153;28;20083;-57
2022/10/19 05:56:20;;;;;;;29.13;16.20;;;13.90;99.90;;;13.54;100.00;98103.31;5008892;28;20034;-57
2022/10/19 05:58:47;;;;;;;25.52;17.20;;;13.90;99.90;;;13.53;100.00;98101.59;5010368;28;21101;-57
2022/10/19 06:01:15;;;;;;;20.60;13.98;;;13.90;99.90;;;13.55;100.00;98105.03;5008311;28;20124;-56
2022/10/19 06:03:42;;;;;;;23.77;16.00;;;13.90;99.90;;;13.55;100.00;98105.03;5009355;28;20041;-56
2022/10/19 06:06:08;;;;;;;20.85;14.82;;;13.90;99.90;;;13.57;100.00;98102.34;5003809;28;20044;-56
2022/10/19 06:08:34;;;;;;;27.02;17.52;;;13.90;99.90;;;13.58;100.00;98109.34;5003384;28;20034;-57
2022/10/19 06:11:09;;;;;;;24.85;15.60;;;13.90;99.90;;;13.54;100.00;98102.44;5015100;28;20037;-57
2022/10/19 06:13:35;;;;;;;22.90;14.38;;;13.90;99.90;;;13.62;100.00;98115.41;5010847;28;20037;-57
2022/10/19 06:16:02;;;;;;;26.13;16.20;;;14.00;99.90;;;13.64;100.00;98116.19;5014615;28;20261;-57
2022/10/19 06:18:28;;;;;;;23.10;15.30;;;14.00;99.90;;;13.62;100.00;98112.75;4988595;28;20037;-56
2022/10/19 06:20:54;;;;;;;30.13;16.27;;;14.00;99.90;;;13.62;100.00;98116.28;5003318;28;20394;-57
2022/10/19 06:23:20;;;;;;;18.52;13.55;;;14.00;99.90;;;13.65;100.00;98104.69;5006072;28;20095;-57
2022/10/19 06:25:45;;;;;;;25.05;16.45;;;14.00;99.90;;;13.66;100.00;98109.09;4991092;28;20394;-57
2022/10/19 06:28:11;;;;;;;22.63;14.55;;;14.00;99.90;;;13.69;100.00;98114.25;5011041;28;20095;-57
2022/10/19 06:30:39;;;;;;;19.40;13.23;;;14.00;99.90;;;13.72;100.00;98117.66;5007286;28;20449;-57
2022/10/19 06:33:05;;;;;;;21.67;14.38;;;14.10;99.90;;;13.76;100.00;98113.09;5012527;28;20029;-57
2022/10/19 06:35:31;;;;;;;26.17;14.90;;;14.10;99.90;;;13.80;100.00;98120.03;5009942;28;20037;-57
2022/10/19 06:37:57;;;;;;;19.73;13.23;;;14.10;99.90;;;13.84;100.00;98126.94;5011170;28;20508;-57
2022/10/19 06:40:24;;;;;;;21.40;13.98;;;14.20;99.90;;;13.88;100.00;98123.22;5017875;28;20064;-57
2022/10/19 06:42:50;;;;;;;21.85;15.07;;;14.30;99.90;;;13.94;100.00;98122.13;5015022;28;20382;-58
2022/10/19 06:45:16;;;;;;;18.00;13.50;;;14.30;99.90;;;13.98;100.00;98122.88;5014298;28;20033;-57
2022/10/19 06:47:42;;;;;;;16.77;12.82;;;14.30;99.90;;;14.01;100.00;98125.41;5018495;28;20034;-57
2022/10/19 06:50:08;;;;;;;19.67;14.18;;;14.40;99.90;;;14.04;100.00;98130.59;5018844;28;20499;-57
2022/10/19 06:52:34;;;;;;;19.77;13.23;;;14.40;99.90;;;14.05;100.00;98129.66;5004456;28;20060;-57
2022/10/19 06:55:00;;;;;;;19.58;12.88;;;14.40;99.90;;;14.10;100.00;98130.34;5011122;28;20048;-56
2022/10/19 06:57:27;;;;;;;16.88;12.20;;;14.50;99.90;;;14.13;100.00;98124.94;5013618;28;20029;-57
2022/10/19 06:59:53;;;;;;;23.58;14.75;;;14.50;99.90;;;14.13;100.00;98123.13;5016579;28;20038;-57
2022/10/19 07:02:19;;;;;;;17.77;12.73;;;14.50;99.90;;;14.20;100.00;98122.91;5010840;28;20052;-57
2022/10/19 07:04:45;;;;;;;19.77;13.07;;;14.60;99.90;;;14.23;100.00;98123.63;5009548;28;20483;-59
2022/10/19 07:07:11;;;;;;;19.88;12.68;;;14.60;99.90;;;14.26;100.00;98122.63;5007995;28;20040;-58
2022/10/19 07:09:36;;;;;;;18.88;12.70;;;14.60;99.90;;;14.33;100.00;98127.63;5010863;28;20033;-57
2022/10/19 07:12:02;;;;;;;16.67;11.15;;;14.70;99.90;;;14.38;100.00;98138.06;5005014;28;20057;-56
2022/10/19 07:14:28;;;;;;;16.33;11.43;;;14.70;99.90;;;14.45;100.00;98128.06;5016534;28;20152;-56
2022/10/19 07:16:54;;;;;;;19.08;12.80;;;14.80;99.90;;;14.50;100.00;98128.75;5007624;28;20053;-57
2022/10/19 07:19:24;;;;;;;16.27;12.65;;;14.90;99.90;;;14.53;100.00;98133.91;5008247;28;20632;-56
2022/10/19 07:21:50;;;;;;;17.73;11.38;;;14.90;99.90;;;14.57;100.00;98127.56;4993873;28;20045;-57
2022/10/19 07:24:16;;;;;;;13.65;10.23;;;14.90;99.90;;;14.63;100.00;98132.66;5010956;28;20146;-57
2022/10/19 07:26:42;;;;;;;14.80;11.20;;;15.00;99.90;;;14.68;100.00;98135.97;4986984;28;20541;-56
2022/10/19 07:29:07;;;;;;;16.77;12.15;;;15.10;99.90;;;14.74;100.00;98131.34;5009985;28;21091;-60
2022/10/19 07:31:33;;;;;;;19.85;13.30;;;15.10;99.90;;;14.80;100.00;98131.91;5011217;28;20064;-58
2022/10/19 07:34:02;;;;;;;14.52;11.02;;;15.10;99.90;;;14.89;100.00;98128.00;5008434;28;20076;-57
2022/10/19 07:36:31;;;;;;;14.80;10.45;;;15.20;99.90;;;14.94;100.00;98131.34;5004581;28;20038;-57
2022/10/19 07:38:56;;;;;;;14.68;9.77;;;15.30;99.90;;;14.93;100.00;98126.09;5007079;28;20149;-57
2022/10/19 07:41:24;;;;;;;18.30;12.52;;;15.30;99.90;;;14.93;100.00;98129.63;5011152;28;20037;-57
2022/10/19 07:43:51;;;;;;;19.33;11.52;;;15.30;99.90;;;14.95;100.00;98130.44;5007924;28;20048;-58
2022/10/19 07:46:20;;;;;;;17.08;11.38;;;15.30;99.90;;;14.99;100.00;98136.47;5013231;28;20924;-57
2022/10/19 07:48:46;;;;;;;19.02;11.68;;;15.30;99.90;;;15.02;100.00;98128.34;4990343;28;20612;-57
2022/10/19 07:51:15;;;;;;;15.57;11.07;;;15.40;99.90;;;15.14;100.00;98133.13;5008043;28;20068;-58
2022/10/19 07:53:41;;;;;;;15.00;10.93;;;15.40;99.90;;;15.23;100.00;98139.84;4983432;28;20061;-57
2022/10/19 07:56:22;;;;;;;13.55;9.20;;;15.60;99.90;;;15.35;100.00;98135.78;5004064;28;20471;-58
2022/10/19 07:58:50;;;;;;;15.23;10.93;;;15.70;99.90;;;15.41;100.00;98123.06;5015439;28;20037;-57
2022/10/19 08:01:29;;;;;;;14.95;11.35;;;15.80;99.90;;;15.44;100.00;98130.91;5011626;28;20836;-57
2022/10/19 08:03:57;;;;;;;15.02;10.23;;;15.80;99.90;;;15.53;100.00;98136.75;4995691;28;20021;-57
2022/10/19 08:06:24;;;;;;;12.10;8.95;;;15.90;99.90;;;15.59;100.00;98133.81;5016538;28;20083;-58
2022/10/19 08:08:50;;;;;;;14.23;9.15;;;16.00;99.90;;;15.63;100.00;98132.72;4992521;28;20021;-57
2022/10/19 08:11:32;;;;;;;13.48;8.40;;;16.00;99.90;;;15.68;100.00;98136.03;5012269;28;20034;-57
2022/10/19 08:13:58;;;;;;;12.15;7.95;;;16.10;99.90;;;15.73;100.00;98130.53;4977090;28;20079;-57
2022/10/19 08:16:31;;;;;;;9.93;7.60;;;16.10;99.90;;;15.79;100.00;98141.78;5007727;28;20117;-57
2022/10/19 08:19:06;;;;;;;10.90;8.05;;;16.10;99.90;;;15.84;100.00;98137.13;5005567;28;20036;-57
2022/10/19 08:21:34;;;;;;;13.77;9.18;;;16.20;99.90;;;15.95;100.00;98135.72;5011788;28;20056;-57
2022/10/19 08:23:59;;;;;;;13.32;8.20;;;16.30;99.90;;;15.94;100.00;98128.72;5010113;28;20025;-57
2022/10/19 08:26:29;;;;;;;10.80;8.10;;;16.30;99.90;;;15.90;100.00;98124.44;5012708;28;20112;-58
2022/10/19 08:29:18;;;;;;;11.07;7.20;;;16.30;99.90;;;15.86;100.00;98134.38;5012760;28;20026;-58
2022/10/19 08:31:46;;;;;;;9.60;6.93;;;16.20;99.90;;;15.74;100.00;98121.59;5008458;28;20115;-57
2022/10/19 08:34:13;;;;;;;9.45;7.32;;;16.20;99.90;;;15.74;100.00;98130.50;5016345;28;20061;-57
2022/10/19 08:36:39;;;;;;;9.65;6.03;;;16.10;99.90;;;15.73;100.00;98125.22;5004206;28;20029;-57
2022/10/19 08:39:08;;;;;;;9.30;7.15;;;16.10;99.90;;;15.79;100.00;98127.59;5010151;28;20331;-58
2022/10/19 08:41:47;;;;;;;10.35;6.68;;;16.10;99.90;;;15.87;100.00;98130.78;5012216;28;20032;-58
2022/10/19 08:44:44;;;;;;;12.93;7.97;;;16.20;99.90;;;15.94;100.00;98134.03;4994071;28;20021;-58
2022/10/19 08:47:55;;;;;;;14.82;6.97;;;16.30;99.90;;;16.02;100.00;98139.81;5008973;28;20034;-57
2022/10/19 08:50:25;;;;;;;10.65;7.47;;;16.40;99.90;;;15.97;100.00;98139.19;5012461;28;20344;-58
2022/10/19 08:53:06;;;;;;;7.88;6.47;;;16.40;99.90;;;16.07;100.00;98135.16;5013417;28;20033;-57
2022/10/19 08:55:53;;;;;;;7.70;6.53;;;16.40;99.90;;;16.09;100.00;98148.38;5008807;28;20033;-57
2022/10/19 08:58:42;;;;;;;8.07;5.70;;;16.40;99.90;;;16.09;100.00;98137.75;4995953;28;20124;-57
2022/10/19 09:01:46;;;;;;;11.48;6.18;;;16.50;99.90;;;16.16;100.00;98141.84;5012173;28;20063;-57
2022/10/19 09:04:18;;;;;;;7.60;5.60;;;16.50;99.90;;;16.20;100.00;98127.44;4983072;28;20047;-57
2022/10/19 09:06:56;;;;;;;8.73;6.05;;;16.50;99.90;;;16.16;100.00;98132.06;5006404;28;20029;-57
2022/10/19 09:09:22;;;;;;;9.73;6.28;;;16.50;99.90;;;16.09;100.00;98130.63;4993691;28;20048;-57
2022/10/19 09:12:02;;;;;;;8.07;5.80;;;16.50;99.90;;;16.09;100.00;98127.97;4990146;28;20041;-58
2022/10/19 09:14:37;;;;;;;7.40;5.85;;;16.40;99.90;;;16.19;100.00;98125.75;5009287;28;20563;-58
2022/10/19 09:17:12;;;;;;;7.90;5.95;;;16.50;99.90;;;16.23;100.00;98122.84;4990969;28;20084;-58
2022/10/19 09:19:37;;;;;;;9.40;7.00;;;16.60;99.90;;;16.19;100.00;98125.75;5006546;28;20033;-58
2022/10/19 09:22:20;;;;;;;9.50;5.72;;;16.60;99.90;;;16.28;100.00;98124.44;5009992;28;20042;-57
2022/10/19 09:24:50;;;;;;;9.88;6.70;;;16.70;99.90;;;16.21;100.00;98124.72;4988820;28;20726;-57
2022/10/19 09:27:26;;;;;;;7.22;5.40;;;16.60;99.90;;;16.20;100.00;98119.47;5008190;28;20026;-57
2022/10/19 09:29:56;;;;;;;9.20;6.32;;;16.60;99.90;;;16.09;100.00;98109.34;5005749;28;20037;-58
2022/10/19 09:32:34;;;;;;;8.88;6.07;;;16.50;99.90;;;16.12;100.00;98116.31;5010050;28;20029;-58
2022/10/19 09:35:22;;;;;;;7.82;5.78;;;16.50;99.90;;;15.99;100.00;98100.09;4997578;28;20128;-58
2022/10/19 09:37:49;;;;;;;8.32;5.85;;;16.50;99.90;;;16.19;100.00;98115.09;5023836;28;20935;-57
2022/10/19 09:40:25;;;;;;;9.10;6.95;;;16.50;99.90;;;16.22;100.00;98120.25;5009901;28;20022;-57
2022/10/19 09:42:56;;;;;;;8.82;6.45;;;16.60;99.90;;;16.23;100.00;98122.84;5001337;23;20334;-42
2022/10/19 09:45:47;;;;;;;8.48;5.53;;;16.60;99.90;;;16.18;100.00;98124.00;4987486;28;20034;-41
2022/10/19 09:48:30;;;;;;;8.15;5.65;;;16.60;99.90;;;16.16;100.00;98120.56;4999961;28;20250;-43
2022/10/19 09:51:00;;;;;;;8.25;5.63;;;16.60;99.90;;;16.14;100.00;98128.59;5003261;28;20089;-42
2022/10/19 09:53:27;;;;;;;9.93;4.97;;;16.60;99.90;;;16.14;100.00;98125.09;4992477;28;20030;-42
2022/10/19 09:56:02;;;;;;;8.90;5.47;;;16.50;99.90;;;16.07;100.00;98119.19;4986525;28;20034;-42
2022/10/19 09:58:29;;;;;;;6.25;4.03;;;16.50;99.90;;;16.03;100.00;98118.47;4991066;28;20065;-43
2022/10/19 10:00:56;;;;;;;8.73;3.88;;;16.40;99.90;;;15.95;100.00;98119.78;4984174;28;20464;-41
2022/10/19 10:03:42;;;;;;;6.38;3.88;;;16.30;99.90;;;15.81;100.00;98123.09;4988446;28;20026;-45
2022/10/19 10:06:16;;;;;;;5.88;3.50;;;16.20;99.90;;;15.74;100.00;98119.84;4990325;28;20080;-42
2022/10/19 10:08:57;;;;;;;5.47;3.72;;;16.10;99.90;;;15.65;100.00;98114.94;4995978;28;20026;-42
2022/10/19 10:11:35;;;;;;;5.85;3.83;;;16.00;99.90;;;15.61;100.00;98116.88;4992797;28;20040;-42
2022/10/19 10:14:34;;;;;;;7.00;4.50;;;16.00;99.90;;;15.64;100.00;98115.84;4991082;28;20041;-42
2022/10/19 10:17:13;;;;;;;6.47;4.47;;;16.00;99.90;;;15.59;100.00;98109.88;4982906;28;20084;-45
2022/10/19 10:20:04;;;;;;;6.78;4.63;;;16.00;99.90;;;15.59;100.00;98112.53;4988244;28;20042;-42